createdAt,value
2018-07-08T00:00:55.081Z,0
2018-07-08T00:01:55.795Z,0
2018-07-08T00:02:56.519Z,0
2018-07-08T00:03:57.248Z,0
2018-07-08T00:04:57.962Z,0
2018-07-08T00:05:58.687Z,0
2018-07-08T00:06:59.413Z,0
2018-07-08T00:08:00.127Z,0
2018-07-08T00:09:00.858Z,0
2018-07-08T00:10:01.573Z,0
2018-07-08T00:11:02.294Z,0
2018-07-08T00:12:03.007Z,0
2018-07-08T00:13:03.719Z,0
2018-07-08T00:14:04.433Z,0
2018-07-08T00:15:05.145Z,0
2018-07-08T00:16:05.857Z,0
2018-07-08T00:17:06.571Z,0
2018-07-08T00:18:07.283Z,0
2018-07-08T00:19:07.993Z,0
2018-07-08T00:20:08.703Z,0
2018-07-08T00:21:09.416Z,0
2018-07-08T00:22:10.128Z,0
2018-07-08T00:23:10.838Z,0
2018-07-08T00:24:11.552Z,0
2018-07-08T00:25:12.265Z,0
2018-07-08T00:26:12.979Z,0
2018-07-08T00:27:13.692Z,0
2018-07-08T00:28:14.405Z,0
2018-07-08T00:29:15.130Z,0
2018-07-08T00:30:15.840Z,0
2018-07-08T00:31:16.552Z,0
2018-07-08T00:32:17.274Z,0
2018-07-08T00:33:17.986Z,0
2018-07-08T00:34:18.710Z,0
2018-07-08T00:35:19.421Z,0
2018-07-08T00:36:20.145Z,0
2018-07-08T00:37:20.859Z,0
2018-07-08T00:38:21.569Z,0
2018-07-08T00:39:22.295Z,0
2018-07-08T00:40:23.020Z,0
2018-07-08T00:41:23.742Z,0
2018-07-08T00:42:24.452Z,0
2018-07-08T00:43:25.176Z,0
2018-07-08T00:44:25.887Z,0
2018-07-08T00:45:26.599Z,0
2018-07-08T00:46:27.309Z,0
2018-07-08T00:47:28.022Z,0
2018-07-08T00:48:28.748Z,0
2018-07-08T00:49:29.473Z,0
2018-07-08T00:50:30.184Z,0
2018-07-08T00:51:30.912Z,0
2018-07-08T00:52:31.632Z,0
2018-07-08T00:53:32.342Z,0
2018-07-08T00:54:33.070Z,0
2018-07-08T00:55:33.783Z,0
2018-07-08T00:56:34.496Z,0
2018-07-08T00:57:35.208Z,0
2018-07-08T00:58:35.934Z,0
2018-07-08T00:59:36.644Z,0
2018-07-08T01:00:37.367Z,0
2018-07-08T01:01:38.137Z,0
2018-07-08T01:02:38.817Z,0
2018-07-08T01:03:39.529Z,0
2018-07-08T01:04:40.242Z,0
2018-07-08T01:05:40.954Z,0
2018-07-08T01:06:41.670Z,0
2018-07-08T01:07:42.382Z,0
2018-07-08T01:08:43.145Z,0
2018-07-08T01:09:43.806Z,0
2018-07-08T01:10:44.519Z,0
2018-07-08T01:11:45.243Z,0
2018-07-08T01:12:45.956Z,0
2018-07-08T01:13:46.666Z,0
2018-07-08T01:14:47.379Z,0
2018-07-08T01:15:48.103Z,0
2018-07-08T01:16:48.817Z,0
2018-07-08T01:17:49.529Z,0
2018-07-08T01:18:50.243Z,0
2018-07-08T01:19:50.954Z,0
2018-07-08T01:20:51.666Z,0
2018-07-08T01:21:52.377Z,0
2018-07-08T01:22:53.099Z,0
2018-07-08T01:23:53.819Z,0
2018-07-08T01:24:54.520Z,0
2018-07-08T01:25:55.245Z,0
2018-07-08T01:26:55.961Z,0
2018-07-08T01:27:56.667Z,0
2018-07-08T01:28:57.381Z,0
2018-07-08T01:29:58.091Z,0
2018-07-08T01:30:58.803Z,0
2018-07-08T01:31:59.516Z,0
2018-07-08T01:33:00.228Z,0
2018-07-08T01:34:00.939Z,0
2018-07-08T01:35:01.652Z,0
2018-07-08T01:36:02.364Z,0
2018-07-08T01:37:03.076Z,0
2018-07-08T01:38:03.800Z,0
2018-07-08T01:39:04.526Z,0
2018-07-08T01:40:05.240Z,0
2018-07-08T01:41:05.953Z,0
2018-07-08T01:42:06.667Z,0
2018-07-08T01:43:07.378Z,0
2018-07-08T01:44:08.090Z,0
2018-07-08T01:45:08.803Z,0
2018-07-08T01:46:09.515Z,0
2018-07-08T01:47:10.228Z,0
2018-07-08T01:48:10.961Z,0
2018-07-08T01:49:11.665Z,0
2018-07-08T01:50:12.374Z,0
2018-07-08T01:51:13.087Z,0
2018-07-08T01:52:13.810Z,0
2018-07-08T01:53:14.521Z,0
2018-07-08T01:54:15.235Z,0
2018-07-08T01:55:15.946Z,0
2018-07-08T01:56:16.670Z,0
2018-07-08T01:57:17.381Z,0
2018-07-08T01:58:18.108Z,0
2018-07-08T01:59:18.834Z,0
2018-07-08T02:00:19.544Z,0
2018-07-08T02:01:20.267Z,0
2018-07-08T02:02:20.980Z,0
2018-07-08T02:03:21.704Z,0
2018-07-08T02:04:22.417Z,0
2018-07-08T02:05:23.127Z,0
2018-07-08T02:06:23.838Z,0
2018-07-08T02:07:24.550Z,0
2018-07-08T02:08:25.262Z,0
2018-07-08T02:09:25.972Z,0
2018-07-08T02:10:26.684Z,0
2018-07-08T02:11:27.408Z,0
2018-07-08T02:12:28.118Z,0
2018-07-08T02:13:28.831Z,0
2018-07-08T02:14:29.548Z,0
2018-07-08T02:15:30.266Z,0
2018-07-08T02:16:30.979Z,0
2018-07-08T02:17:31.693Z,0
2018-07-08T02:18:32.418Z,0
2018-07-08T02:19:33.131Z,0
2018-07-08T02:20:33.840Z,0
2018-07-08T02:21:34.550Z,0
2018-07-08T02:22:35.261Z,0
2018-07-08T02:23:35.984Z,0
2018-07-08T02:24:36.694Z,0
2018-07-08T02:25:37.404Z,0
2018-07-08T02:26:38.126Z,0
2018-07-08T02:27:38.850Z,0
2018-07-08T02:28:39.562Z,0
2018-07-08T02:29:40.274Z,0
2018-07-08T02:30:40.984Z,0
2018-07-08T02:31:41.711Z,0
2018-07-08T02:32:42.425Z,0
2018-07-08T02:33:43.137Z,0
2018-07-08T02:34:43.851Z,0
2018-07-08T02:35:44.564Z,0
2018-07-08T02:36:45.277Z,0
2018-07-08T02:37:45.990Z,0
2018-07-08T02:38:46.702Z,4
2018-07-08T02:39:47.415Z,4
2018-07-08T02:40:48.143Z,4
2018-07-08T02:41:48.849Z,0
2018-07-08T02:42:49.573Z,4
2018-07-08T02:43:50.286Z,4
2018-07-08T02:44:50.998Z,4
2018-07-08T02:45:51.711Z,4
2018-07-08T02:46:52.435Z,4
2018-07-08T02:47:53.145Z,4
2018-07-08T02:48:53.859Z,4
2018-07-08T02:49:54.570Z,4
2018-07-08T02:50:55.282Z,8
2018-07-08T02:51:56.005Z,8
2018-07-08T02:52:56.721Z,8
2018-07-08T02:53:57.445Z,12
2018-07-08T02:54:58.169Z,12
2018-07-08T02:55:58.879Z,12
2018-07-08T02:56:59.593Z,16
2018-07-08T02:58:00.306Z,20
2018-07-08T02:59:01.017Z,20
2018-07-08T03:00:01.732Z,20
2018-07-08T03:01:02.461Z,24
2018-07-08T03:02:03.176Z,28
2018-07-08T03:03:03.888Z,28
2018-07-08T03:04:04.602Z,36
2018-07-08T03:05:05.315Z,40
2018-07-08T03:06:06.028Z,44
2018-07-08T03:07:06.752Z,48
2018-07-08T03:08:07.464Z,52
2018-07-08T03:09:08.188Z,60
2018-07-08T03:10:08.900Z,68
2018-07-08T03:11:09.612Z,72
2018-07-08T03:12:10.325Z,76
2018-07-08T03:13:11.037Z,88
2018-07-08T03:14:11.765Z,96
2018-07-08T03:15:12.481Z,104
2018-07-08T03:16:13.193Z,112
2018-07-08T03:17:13.918Z,124
2018-07-08T03:18:14.635Z,132
2018-07-08T03:19:15.349Z,140
2018-07-08T03:20:16.065Z,152
2018-07-08T03:21:16.791Z,164
2018-07-08T03:22:17.505Z,180
2018-07-08T03:23:18.222Z,192
2018-07-08T03:24:18.937Z,204
2018-07-08T03:25:19.664Z,220
2018-07-08T03:26:20.378Z,232
2018-07-08T03:27:21.093Z,248
2018-07-08T03:28:21.809Z,268
2018-07-08T03:29:22.522Z,284
2018-07-08T03:30:23.237Z,300
2018-07-08T03:31:23.952Z,320
2018-07-08T03:32:24.669Z,336
2018-07-08T03:33:25.456Z,352
2018-07-08T03:34:26.110Z,372
2018-07-08T03:35:26.824Z,392
2018-07-08T03:36:27.550Z,412
2018-07-08T03:37:28.278Z,432
2018-07-08T03:38:29.006Z,448
2018-07-08T03:39:29.724Z,468
2018-07-08T03:40:30.438Z,492
2018-07-08T03:41:31.153Z,512
2018-07-08T03:42:31.867Z,536
2018-07-08T03:43:32.584Z,556
2018-07-08T03:44:33.299Z,576
2018-07-08T03:45:34.018Z,600
2018-07-08T03:46:34.728Z,620
2018-07-08T03:47:35.454Z,644
2018-07-08T03:48:36.168Z,664
2018-07-08T03:49:36.883Z,688
2018-07-08T03:50:37.596Z,708
2018-07-08T03:51:38.311Z,732
2018-07-08T03:52:39.028Z,752
2018-07-08T03:53:39.754Z,776
2018-07-08T03:54:40.472Z,796
2018-07-08T03:55:41.188Z,820
2018-07-08T03:56:41.916Z,844
2018-07-08T03:57:42.632Z,864
2018-07-08T03:58:43.348Z,888
2018-07-08T03:59:44.075Z,908
2018-07-08T04:00:44.791Z,928
2018-07-08T04:01:45.512Z,948
2018-07-08T04:02:46.225Z,968
2018-07-08T04:03:46.940Z,992
2018-07-08T04:04:47.655Z,1012
2018-07-08T04:05:48.371Z,1032
2018-07-08T04:06:49.098Z,1056
2018-07-08T04:07:49.814Z,1076
2018-07-08T04:08:50.529Z,1096
2018-07-08T04:09:51.248Z,1120
2018-07-08T04:10:51.974Z,1140
2018-07-08T04:11:52.690Z,1160
2018-07-08T04:12:53.405Z,1184
2018-07-08T04:13:54.122Z,1204
2018-07-08T04:14:54.838Z,1228
2018-07-08T04:15:55.555Z,1244
2018-07-08T04:16:56.272Z,1264
2018-07-08T04:17:56.990Z,1284
2018-07-08T04:18:57.708Z,1304
2018-07-08T04:19:58.435Z,1324
2018-07-08T04:20:59.153Z,1340
2018-07-08T04:21:59.881Z,1360
2018-07-08T04:23:00.600Z,1380
2018-07-08T04:24:01.316Z,1400
2018-07-08T04:25:02.034Z,1420
2018-07-08T04:26:02.762Z,1440
2018-07-08T04:27:03.478Z,1460
2018-07-08T04:28:04.203Z,1480
2018-07-08T04:29:04.923Z,1496
2018-07-08T04:30:05.640Z,1520
2018-07-08T04:31:06.356Z,1540
2018-07-08T04:32:07.073Z,1556
2018-07-08T04:33:07.789Z,1572
2018-07-08T04:34:08.511Z,1588
2018-07-08T04:35:09.236Z,1608
2018-07-08T04:36:09.966Z,1628
2018-07-08T04:37:10.683Z,1644
2018-07-08T04:38:11.401Z,1664
2018-07-08T04:39:12.119Z,1676
2018-07-08T04:40:12.834Z,1696
2018-07-08T04:41:13.555Z,1716
2018-07-08T04:42:14.274Z,1732
2018-07-08T04:43:14.991Z,1752
2018-07-08T04:44:15.707Z,1764
2018-07-08T04:45:16.423Z,1780
2018-07-08T04:46:17.145Z,1792
2018-07-08T04:47:17.858Z,1804
2018-07-08T04:48:18.576Z,1824
2018-07-08T04:49:19.357Z,1840
2018-07-08T04:50:20.012Z,1860
2018-07-08T04:51:20.730Z,1876
2018-07-08T04:52:21.447Z,1896
2018-07-08T04:53:22.165Z,1912
2018-07-08T04:54:22.880Z,1924
2018-07-08T04:55:23.601Z,1940
2018-07-08T04:56:24.328Z,1960
2018-07-08T04:57:25.058Z,1976
2018-07-08T04:58:25.785Z,1988
2018-07-08T04:59:26.515Z,2008
2018-07-08T05:00:27.235Z,2028
2018-07-08T05:01:27.963Z,2052
2018-07-08T05:02:28.680Z,2064
2018-07-08T05:03:29.396Z,2076
2018-07-08T05:04:30.114Z,2096
2018-07-08T05:05:30.832Z,2108
2018-07-08T05:06:31.580Z,2128
2018-07-08T05:07:32.275Z,2152
2018-07-08T05:08:33.005Z,2176
2018-07-08T05:09:33.722Z,2196
2018-07-08T05:10:34.439Z,2204
2018-07-08T05:11:35.169Z,2224
2018-07-08T05:12:35.885Z,2244
2018-07-08T05:13:36.601Z,2252
2018-07-08T05:14:37.320Z,2268
2018-07-08T05:15:38.037Z,2284
2018-07-08T05:16:38.768Z,2296
2018-07-08T05:17:39.487Z,2320
2018-07-08T05:18:40.203Z,2328
2018-07-08T05:19:40.918Z,2348
2018-07-08T05:20:41.647Z,2372
2018-07-08T05:21:42.363Z,2396
2018-07-08T05:22:43.079Z,2408
2018-07-08T05:23:43.796Z,2416
2018-07-08T05:24:44.516Z,2436
2018-07-08T05:25:45.233Z,2444
2018-07-08T05:26:45.951Z,2452
2018-07-08T05:27:46.667Z,2468
2018-07-08T05:28:47.383Z,2480
2018-07-08T05:29:48.104Z,2504
2018-07-08T05:30:48.818Z,2504
2018-07-08T05:31:49.536Z,2532
2018-07-08T05:32:50.266Z,2548
2018-07-08T05:33:50.995Z,2576
2018-07-08T05:34:51.711Z,2612
2018-07-08T05:35:52.429Z,2628
2018-07-08T05:36:53.147Z,2644
2018-07-08T05:37:53.865Z,2640
2018-07-08T05:38:54.587Z,2660
2018-07-08T05:39:55.316Z,2708
2018-07-08T05:40:56.033Z,2708
2018-07-08T05:41:56.750Z,2716
2018-07-08T05:42:57.469Z,2684
2018-07-08T05:43:58.189Z,2688
2018-07-08T05:44:58.905Z,2748
2018-07-08T05:45:59.624Z,2720
2018-07-08T05:47:00.345Z,2740
2018-07-08T05:48:01.064Z,2760
2018-07-08T05:49:01.785Z,2832
2018-07-08T05:50:02.500Z,2804
2018-07-08T05:51:03.221Z,2796
2018-07-08T05:52:03.940Z,2840
2018-07-08T05:53:04.659Z,2844
2018-07-08T05:54:05.377Z,2832
2018-07-08T05:55:06.098Z,2832
2018-07-08T05:56:06.830Z,2864
2018-07-08T05:57:07.549Z,2884
2018-07-08T05:58:08.271Z,2932
2018-07-08T05:59:08.990Z,2948
2018-07-08T06:00:09.722Z,2968
2018-07-08T06:01:10.441Z,3036
2018-07-08T06:02:11.158Z,3044
2018-07-08T06:03:11.888Z,3008
2018-07-08T06:04:12.621Z,3032
2018-07-08T06:05:13.339Z,3076
2018-07-08T06:06:14.058Z,3128
2018-07-08T06:07:14.776Z,3156
2018-07-08T06:08:15.495Z,3176
2018-07-08T06:09:16.214Z,3204
2018-07-08T06:10:16.930Z,3404
2018-07-08T06:11:17.663Z,3416
2018-07-08T06:12:18.393Z,3356
2018-07-08T06:13:19.112Z,3428
2018-07-08T06:14:19.830Z,3348
2018-07-08T06:15:20.589Z,3348
2018-07-08T06:16:21.279Z,3396
2018-07-08T06:17:22.005Z,3364
2018-07-08T06:18:22.722Z,3420
2018-07-08T06:19:23.457Z,3412
2018-07-08T06:20:24.177Z,3396
2018-07-08T06:21:24.892Z,3400
2018-07-08T06:22:25.624Z,3700
2018-07-08T06:23:26.346Z,4216
2018-07-08T06:24:27.063Z,3828
2018-07-08T06:25:27.782Z,3800
2018-07-08T06:26:28.500Z,3596
2018-07-08T06:27:29.218Z,3884
2018-07-08T06:28:29.935Z,4292
2018-07-08T06:29:30.653Z,3836
2018-07-08T06:30:31.384Z,4152
2018-07-08T06:31:32.102Z,4480
2018-07-08T06:32:32.827Z,4288
2018-07-08T06:33:33.544Z,4084
2018-07-08T06:34:34.275Z,4020
2018-07-08T06:35:35.007Z,4268
2018-07-08T06:36:35.728Z,4488
2018-07-08T06:37:36.460Z,4304
2018-07-08T06:38:37.180Z,4320
2018-07-08T06:39:37.899Z,4420
2018-07-08T06:40:38.619Z,4896
2018-07-08T06:41:39.350Z,5208
2018-07-08T06:42:40.083Z,4712
2018-07-08T06:43:40.801Z,5232
2018-07-08T06:44:41.538Z,4708
2018-07-08T06:45:42.265Z,4560
2018-07-08T06:46:42.985Z,4476
2018-07-08T06:47:43.703Z,4316
2018-07-08T06:48:44.423Z,5028
2018-07-08T06:49:45.142Z,5496
2018-07-08T06:50:45.864Z,5360
2018-07-08T06:51:46.596Z,4708
2018-07-08T06:52:47.317Z,4812
2018-07-08T06:53:48.086Z,4684
2018-07-08T06:54:48.761Z,4596
2018-07-08T06:55:49.474Z,4204
2018-07-08T06:56:50.194Z,5272
2018-07-08T06:57:50.920Z,5612
2018-07-08T06:58:51.633Z,4820
2018-07-08T06:59:52.351Z,4788
2018-07-08T07:00:53.073Z,4588
2018-07-08T07:01:53.789Z,4316
2018-07-08T07:02:54.509Z,4124
2018-07-08T07:03:55.230Z,4108
2018-07-08T07:04:55.948Z,4652
2018-07-08T07:05:56.669Z,4792
2018-07-08T07:06:57.388Z,4660
2018-07-08T07:07:58.109Z,4616
2018-07-08T07:08:58.831Z,4284
2018-07-08T07:09:59.551Z,4300
2018-07-08T07:11:00.270Z,4416
2018-07-08T07:12:00.988Z,4496
2018-07-08T07:13:01.721Z,4564
2018-07-08T07:14:02.453Z,5076
2018-07-08T07:15:03.174Z,4612
2018-07-08T07:16:03.892Z,4556
2018-07-08T07:17:04.610Z,4736
2018-07-08T07:18:05.343Z,6268
2018-07-08T07:19:06.080Z,6876
2018-07-08T07:20:06.797Z,5588
2018-07-08T07:21:07.517Z,4772
2018-07-08T07:22:08.240Z,4520
2018-07-08T07:23:09.082Z,5096
2018-07-08T07:24:09.679Z,5448
2018-07-08T07:25:10.398Z,5396
2018-07-08T07:26:11.125Z,5880
2018-07-08T07:27:11.863Z,5044
2018-07-08T07:28:12.572Z,4904
2018-07-08T07:29:13.293Z,4924
2018-07-08T07:30:14.012Z,4496
2018-07-08T07:31:14.735Z,5260
2018-07-08T07:32:15.450Z,4860
2018-07-08T07:33:16.183Z,4752
2018-07-08T07:34:16.906Z,4900
2018-07-08T07:35:17.622Z,4788
2018-07-08T07:36:18.342Z,4616
2018-07-08T07:37:19.116Z,4508
2018-07-08T07:38:19.789Z,4520
2018-07-08T07:39:20.512Z,4616
2018-07-08T07:40:21.244Z,4824
2018-07-08T07:41:21.967Z,4912
2018-07-08T07:42:22.701Z,4940
2018-07-08T07:43:23.423Z,5084
2018-07-08T07:44:24.148Z,5144
2018-07-08T07:45:24.874Z,4908
2018-07-08T07:46:25.591Z,5188
2018-07-08T07:47:26.313Z,5176
2018-07-08T07:48:27.038Z,5140
2018-07-08T07:49:27.762Z,5624
2018-07-08T07:50:28.490Z,6084
2018-07-08T07:51:29.216Z,6404
2018-07-08T07:52:29.946Z,6044
2018-07-08T07:53:30.687Z,6448
2018-07-08T07:54:31.415Z,6896
2018-07-08T07:55:32.144Z,7488
2018-07-08T07:56:32.874Z,7948
2018-07-08T07:57:33.605Z,8116
2018-07-08T07:58:34.336Z,8120
2018-07-08T07:59:35.066Z,8044
2018-07-08T08:00:35.798Z,8092
2018-07-08T08:01:36.528Z,8144
2018-07-08T08:02:37.255Z,8288
2018-07-08T08:03:37.983Z,8496
2018-07-08T08:04:38.723Z,8628
2018-07-08T08:05:39.452Z,8800
2018-07-08T08:06:40.194Z,9064
2018-07-08T08:07:40.924Z,9328
2018-07-08T08:08:41.652Z,9736
2018-07-08T08:09:42.380Z,10392
2018-07-08T08:10:43.131Z,11308
2018-07-08T08:11:43.858Z,13172
2018-07-08T08:12:44.589Z,22624
2018-07-08T08:13:45.344Z,46560
2018-07-08T08:14:46.051Z,67360
2018-07-08T08:15:46.783Z,69120
2018-07-08T08:16:47.515Z,71840
2018-07-08T08:17:48.245Z,73376
2018-07-08T08:18:49.009Z,75296
2018-07-08T08:19:49.741Z,73984
2018-07-08T08:20:50.480Z,73536
2018-07-08T08:21:51.211Z,76032
2018-07-08T08:22:51.947Z,74048
2018-07-08T08:23:52.676Z,75008
2018-07-08T08:24:53.409Z,74240
2018-07-08T08:25:54.142Z,73792
2018-07-08T08:26:54.877Z,73792
2018-07-08T08:27:55.619Z,77056
2018-07-08T08:28:56.348Z,74688
2018-07-08T08:29:57.080Z,73728
2018-07-08T08:30:57.818Z,78272
2018-07-08T08:31:58.561Z,75616
2018-07-08T08:32:59.291Z,78912
2018-07-08T08:34:00.031Z,79648
2018-07-08T08:35:00.768Z,77568
2018-07-08T08:36:01.512Z,79936
2018-07-08T08:37:02.244Z,78368
2018-07-08T08:38:02.976Z,80000
2018-07-08T08:39:03.710Z,79808
2018-07-08T08:40:04.459Z,79104
2018-07-08T08:41:05.189Z,80128
2018-07-08T08:42:05.923Z,74560
2018-07-08T08:43:06.664Z,80288
2018-07-08T08:44:07.403Z,79008
2018-07-08T08:45:08.148Z,80000
2018-07-08T08:46:08.884Z,82496
2018-07-08T08:47:09.618Z,87584
2018-07-08T08:48:10.362Z,88480
2018-07-08T08:49:11.098Z,90272
2018-07-08T08:50:11.836Z,93184
2018-07-08T08:51:12.572Z,91104
2018-07-08T08:52:13.310Z,96384
2018-07-08T08:53:14.049Z,97088
2018-07-08T08:54:14.801Z,85344
2018-07-08T08:55:15.541Z,85696
2018-07-08T08:56:16.280Z,84128
2018-07-08T08:57:17.020Z,85536
2018-07-08T08:58:17.764Z,84896
2018-07-08T08:59:18.502Z,81216
2018-07-08T09:00:19.248Z,84544
2018-07-08T09:01:19.988Z,86240
2018-07-08T09:02:20.732Z,85760
2018-07-08T09:03:21.478Z,88864
2018-07-08T09:04:22.221Z,85664
2018-07-08T09:05:22.958Z,87008
2018-07-08T09:06:23.699Z,95744
2018-07-08T09:07:24.454Z,89856
2018-07-08T09:08:25.208Z,93312
2018-07-08T09:09:25.964Z,87648
2018-07-08T09:10:26.700Z,81568
2018-07-08T09:11:27.439Z,91552
2018-07-08T09:12:28.187Z,87968
2018-07-08T09:13:28.934Z,85280
2018-07-08T09:14:29.676Z,91296
2018-07-08T09:15:30.418Z,86784
2018-07-08T09:16:31.159Z,90400
2018-07-08T09:17:31.912Z,84224
2018-07-08T09:18:32.656Z,89344
2018-07-08T09:19:33.396Z,89216
2018-07-08T09:20:34.137Z,87264
2018-07-08T09:21:34.877Z,87744
2018-07-08T09:22:35.620Z,87520
2018-07-08T09:23:36.377Z,90976
2018-07-08T09:24:37.128Z,94592
2018-07-08T09:25:37.869Z,92320
2018-07-08T09:26:38.611Z,86432
2018-07-08T09:27:39.352Z,89248
2018-07-08T09:28:40.095Z,89632
2018-07-08T09:29:40.841Z,86208
2018-07-08T09:30:41.577Z,86624
2018-07-08T09:32:26.973Z,90144
2018-07-08T09:33:27.713Z,91648
2018-07-08T09:34:28.455Z,89152
2018-07-08T09:35:29.193Z,84576
2018-07-08T09:36:29.948Z,86912
2018-07-08T09:37:30.692Z,85792
2018-07-08T09:38:31.449Z,86592
2018-07-08T09:39:32.169Z,93152
2018-07-08T09:40:32.911Z,89088
2018-07-08T09:41:33.650Z,89056
2018-07-08T09:42:34.390Z,86272
2018-07-08T09:43:35.143Z,90656
2018-07-08T09:44:35.882Z,95616
2018-07-08T09:45:36.636Z,93632
2018-07-08T09:46:37.390Z,94720
2018-07-08T09:47:38.131Z,93440
2018-07-08T09:48:38.868Z,96960
2018-07-08T09:49:39.606Z,99360
2018-07-08T09:50:40.346Z,99136
2018-07-08T09:51:41.098Z,98144
2018-07-08T09:52:41.915Z,93472
2018-07-08T09:53:42.587Z,96864
2018-07-08T09:54:43.322Z,95200
2018-07-08T09:55:44.073Z,91808
2018-07-08T09:56:44.812Z,92064
2018-07-08T09:57:45.563Z,92640
2018-07-08T09:58:46.301Z,93216
2018-07-08T09:59:47.039Z,91232
2018-07-08T10:00:47.778Z,95264
2018-07-08T10:01:48.516Z,90560
2018-07-08T10:02:49.267Z,89536
2018-07-08T10:03:50.017Z,88128
2018-07-08T10:04:50.779Z,89568
2018-07-08T10:05:51.494Z,94368
2018-07-08T10:06:52.230Z,97408
2018-07-08T10:07:52.979Z,98528
2018-07-08T10:08:53.731Z,96320
2018-07-08T10:09:54.469Z,95200
2018-07-08T10:10:55.277Z,95936
2018-07-08T10:11:55.957Z,91872
2018-07-08T10:12:56.697Z,90336
2018-07-08T10:13:57.511Z,93376
2018-07-08T10:14:58.174Z,90240
2018-07-08T10:15:58.912Z,91552
2018-07-08T10:16:59.654Z,98880
2018-07-08T10:18:00.391Z,94272
2018-07-08T10:19:01.143Z,94272
2018-07-08T10:20:01.885Z,94880
2018-07-08T10:21:02.619Z,91520
2018-07-08T10:22:03.359Z,98336
2018-07-08T10:23:04.098Z,92224
2018-07-08T10:24:04.838Z,94272
2018-07-08T10:25:05.589Z,91776
2018-07-08T10:26:06.328Z,87264
2018-07-08T10:27:07.065Z,83808
2018-07-08T10:28:07.813Z,83424
2018-07-08T10:29:08.546Z,84160
2018-07-08T10:30:09.286Z,79584
2018-07-08T10:31:10.025Z,85120
2018-07-08T10:32:10.774Z,86688
2018-07-08T10:33:11.527Z,84960
2018-07-08T10:34:12.267Z,85664
2018-07-08T10:35:13.006Z,88032
2018-07-08T10:36:13.745Z,98880
2018-07-08T10:37:14.484Z,95296
2018-07-08T10:38:15.251Z,86368
2018-07-08T10:39:15.965Z,91264
2018-07-08T10:40:16.701Z,89952
2018-07-08T10:41:17.443Z,86528
2018-07-08T10:42:18.178Z,92128
2018-07-08T10:43:18.927Z,92736
2018-07-08T10:44:19.657Z,89792
2018-07-08T10:45:20.398Z,95680
2018-07-08T10:46:21.138Z,94688
2018-07-08T10:47:21.876Z,93344
2018-07-08T10:48:22.630Z,96288
2018-07-08T10:49:23.364Z,95136
2018-07-08T10:50:24.130Z,99264
2018-07-08T10:51:24.868Z,100416
2018-07-08T10:52:25.606Z,100896
2018-07-08T10:53:26.345Z,97664
2018-07-08T10:54:27.098Z,95168
2018-07-08T10:55:27.896Z,99552
2018-07-08T10:56:28.578Z,100992
2018-07-08T10:57:29.319Z,97600
2018-07-08T10:58:30.068Z,88576
2018-07-08T10:59:30.807Z,98176
2018-07-08T11:00:31.562Z,98560
2018-07-08T11:01:32.307Z,87552
2018-07-08T11:02:33.045Z,94400
2018-07-08T11:03:33.782Z,94976
2018-07-08T11:04:34.534Z,85152
2018-07-08T11:05:35.268Z,83968
2018-07-08T11:06:36.016Z,89152
2018-07-08T11:07:36.756Z,85056
2018-07-08T11:08:37.492Z,78400
2018-07-08T11:09:38.227Z,39904
2018-07-08T11:10:39.013Z,9404
2018-07-08T11:11:39.694Z,8416
2018-07-08T11:12:40.428Z,7248
2018-07-08T11:13:41.160Z,6552
2018-07-08T11:14:41.907Z,6132
2018-07-08T11:15:42.639Z,5816
2018-07-08T11:16:43.373Z,5580
2018-07-08T11:17:44.108Z,5420
2018-07-08T11:18:44.848Z,5308
2018-07-08T11:19:45.580Z,5176
2018-07-08T11:20:46.325Z,5084
2018-07-08T11:21:47.042Z,5004
2018-07-08T11:22:47.775Z,4952
2018-07-08T11:23:48.520Z,4880
2018-07-08T11:24:49.256Z,4836
2018-07-08T11:25:49.985Z,4800
2018-07-08T11:26:50.734Z,4748
2018-07-08T11:27:51.468Z,4704
2018-07-08T11:28:52.212Z,4648
2018-07-08T11:29:52.946Z,4596
2018-07-08T11:30:53.682Z,4548
2018-07-08T11:31:54.414Z,4484
2018-07-08T11:32:55.150Z,4444
2018-07-08T11:33:55.888Z,4400
2018-07-08T11:34:56.638Z,4376
2018-07-08T11:35:57.384Z,4352
2018-07-08T11:36:58.119Z,4324
2018-07-08T11:37:58.855Z,4324
2018-07-08T11:38:59.591Z,4292
2018-07-08T11:40:00.327Z,4296
2018-07-08T11:41:01.060Z,4256
2018-07-08T11:42:01.796Z,4232
2018-07-08T11:43:02.632Z,4216
2018-07-08T11:44:03.283Z,4156
2018-07-08T11:45:04.019Z,4176
2018-07-08T11:46:04.753Z,4140
2018-07-08T11:47:05.491Z,4120
2018-07-08T11:48:06.226Z,4128
2018-07-08T11:49:06.963Z,4112
2018-07-08T11:50:07.702Z,4088
2018-07-08T11:51:08.437Z,4060
2018-07-08T11:52:09.169Z,4056
2018-07-08T11:53:09.900Z,4052
2018-07-08T11:54:10.627Z,4036
2018-07-08T11:55:11.360Z,4036
2018-07-08T11:56:12.090Z,4028
2018-07-08T11:57:12.830Z,4028
2018-07-08T11:58:13.567Z,4104
2018-07-08T11:59:14.288Z,4008
2018-07-08T12:00:15.015Z,4112
2018-07-08T12:01:15.753Z,4024
2018-07-08T12:02:16.482Z,3972
2018-07-08T12:03:17.212Z,3856
2018-07-08T12:04:17.940Z,3764
2018-07-08T12:05:18.664Z,3752
2018-07-08T12:06:19.444Z,3728
2018-07-08T12:07:20.122Z,3700
2018-07-08T12:08:20.847Z,3672
2018-07-08T12:09:21.585Z,3652
2018-07-08T12:10:22.313Z,3608
2018-07-08T12:11:23.052Z,3596
2018-07-08T12:12:23.788Z,3584
2018-07-08T12:13:24.515Z,3552
2018-07-08T12:14:25.315Z,3548
2018-07-08T12:15:25.983Z,3524
2018-07-08T12:16:26.709Z,3484
2018-07-08T12:17:27.436Z,3456
2018-07-08T12:18:28.163Z,3436
2018-07-08T12:19:28.891Z,3428
2018-07-08T12:20:29.616Z,3416
2018-07-08T12:21:30.344Z,3404
2018-07-08T12:22:31.083Z,3380
2018-07-08T12:23:31.808Z,3392
2018-07-08T12:24:32.534Z,3376
2018-07-08T12:25:33.261Z,3368
2018-07-08T12:26:33.992Z,3368
2018-07-08T12:27:34.742Z,3352
2018-07-08T12:28:35.450Z,3356
2018-07-08T12:30:40.860Z,3348
2018-07-08T12:31:41.586Z,3324
2018-07-08T12:32:42.311Z,3308
2018-07-08T12:33:43.036Z,3320
2018-07-08T12:34:43.761Z,3280
2018-07-08T12:35:44.486Z,3256
2018-07-08T12:36:45.248Z,3232
2018-07-08T12:37:45.939Z,3236
2018-07-08T12:38:46.671Z,3224
2018-07-08T12:39:47.405Z,3220
2018-07-08T12:40:48.130Z,3216
2018-07-08T12:41:48.857Z,3208
2018-07-08T12:42:49.603Z,3188
2018-07-08T12:43:50.329Z,3188
2018-07-08T12:44:51.132Z,3156
2018-07-08T12:45:51.782Z,3136
2018-07-08T12:46:52.506Z,3120
2018-07-08T12:47:53.231Z,3100
2018-07-08T12:48:53.958Z,3072
2018-07-08T12:49:54.683Z,3048
2018-07-08T12:50:55.410Z,3028
2018-07-08T12:51:56.136Z,2980
2018-07-08T12:52:56.860Z,2940
2018-07-08T12:53:57.596Z,2920
2018-07-08T12:54:58.332Z,2908
2018-07-08T12:55:59.059Z,2888
2018-07-08T12:56:59.788Z,2904
2018-07-08T12:58:00.513Z,2908
2018-07-08T12:59:01.303Z,2896
2018-07-08T13:00:01.964Z,2892
2018-07-08T13:01:02.690Z,2892
2018-07-08T13:02:03.416Z,2900
2018-07-08T13:03:04.146Z,2888
2018-07-08T13:04:04.881Z,2876
2018-07-08T13:05:05.607Z,2904
2018-07-08T13:06:06.333Z,2904
2018-07-08T13:07:07.059Z,2896
2018-07-08T13:08:07.796Z,2912
2018-07-08T13:09:08.537Z,2932
2018-07-08T13:10:09.264Z,2944
2018-07-08T13:11:09.986Z,2932
2018-07-08T13:12:10.712Z,2916
2018-07-08T13:13:11.452Z,2928
2018-07-08T13:14:12.191Z,2852
2018-07-08T13:15:12.916Z,2780
2018-07-08T13:16:13.642Z,2800
2018-07-08T13:17:14.368Z,2768
2018-07-08T13:18:15.094Z,2744
2018-07-08T13:19:15.819Z,2724
2018-07-08T13:20:16.559Z,2712
2018-07-08T13:21:17.295Z,2688
2018-07-08T13:22:18.023Z,2668
2018-07-08T13:23:18.744Z,2668
2018-07-08T13:24:19.470Z,2660
2018-07-08T13:25:20.197Z,2624
2018-07-08T13:26:20.965Z,2672
2018-07-08T13:27:21.649Z,2668
2018-07-08T13:28:22.372Z,2680
2018-07-08T13:29:23.113Z,2700
2018-07-08T13:30:23.850Z,2716
2018-07-08T13:31:24.578Z,2716
2018-07-08T13:32:25.397Z,2708
2018-07-08T13:33:26.046Z,2700
2018-07-08T13:34:26.781Z,2716
2018-07-08T13:35:27.506Z,2696
2018-07-08T13:36:28.230Z,2660
2018-07-08T13:37:28.955Z,2644
2018-07-08T13:38:29.679Z,2628
2018-07-08T13:39:30.407Z,2624
2018-07-08T13:40:31.141Z,2632
2018-07-08T13:41:31.867Z,2620
2018-07-08T13:42:32.592Z,2624
2018-07-08T13:43:33.330Z,2600
2018-07-08T13:44:34.059Z,2584